Time;durP1;ratioP1;P1;durP2;ratioP2;P2;SDS_P1;SDS_P2;PMS_P1;PMS_P2;Temp;Humidity;BMP_temperature;BMP_pressure;BME280_temperature;BME280_humidity;BME280_pressure;Samples;Min_cycle;Max_cycle;Signal;HPM_P1;HPM_P2
2022/04/28 00:00:40;;;;;;;11.10;9.07;;;;;;;8.18;74.69;102014.31;4965337;28;20899;-70
2022/04/28 00:03:07;;;;;;;12.25;9.30;;;;;;;8.11;74.74;102007.72;4947803;28;20410;-70
2022/04/28 00:05:32;;;;;;;9.90;8.90;;;;;;;8.08;74.64;102018.44;4919940;28;20069;-70
2022/04/28 00:07:58;;;;;;;10.20;8.98;;;;;;;8.01;74.71;102015.31;4967606;28;20805;-69
2022/04/28 00:10:23;;;;;;;9.30;8.50;;;;;;;7.88;74.84;102019.56;4950319;28;20795;-69
2022/04/28 00:12:49;;;;;;;11.48;8.68;;;;;;;8.08;74.62;102015.81;4931447;28;20943;-69
2022/04/28 00:15:14;;;;;;;9.55;8.55;;;;;;;8.15;73.77;102013.66;4947488;28;20019;-70
2022/04/28 00:17:40;;;;;;;15.20;9.45;;;;;;;8.06;73.69;102020.31;4949040;28;20049;-69
2022/04/28 00:20:06;;;;;;;9.70;8.70;;;;;;;7.81;74.32;102027.00;4950400;28;20034;-69
2022/04/28 00:22:31;;;;;;;9.95;8.63;;;;;;;7.73;74.52;102021.31;4949732;28;20026;-69
2022/04/28 00:24:56;;;;;;;9.70;8.68;;;;;;;7.75;74.45;102022.06;4938620;28;20471;-69
2022/04/28 00:27:22;;;;;;;9.25;8.35;;;;;;;7.70;74.47;102029.41;4947200;28;20114;-69
2022/04/28 00:29:47;;;;;;;9.73;8.73;;;;;;;7.62;75.18;102027.16;4949167;28;20080;-69
2022/04/28 00:32:12;;;;;;;9.63;8.73;;;;;;;7.85;73.74;102030.28;4989852;28;20002;-69
2022/04/28 00:34:38;;;;;;;9.38;8.35;;;;;;;7.81;73.85;102032.28;4964065;28;20022;-69
2022/04/28 00:37:04;;;;;;;9.70;8.77;;;;;;;7.61;74.65;102029.91;4973021;28;20041;-69
2022/04/28 00:39:29;;;;;;;9.85;8.85;;;;;;;7.46;75.41;102019.28;4981690;28;20052;-69
2022/04/28 00:41:55;;;;;;;9.75;8.75;;;;;;;7.82;74.18;102025.22;4949575;28;20018;-69
2022/04/28 00:44:20;;;;;;;9.85;8.75;;;;;;;7.66;74.22;102020.81;4991118;28;20014;-69
2022/04/28 00:46:46;;;;;;;9.50;8.55;;;;;;;7.55;74.91;102025.81;4952340;28;20022;-69
2022/04/28 00:51:55;;;;;;;9.02;8.10;;;;;;;7.68;74.75;102026.81;4969866;28;20851;-68
2022/04/28 00:54:21;;;;;;;8.88;8.07;;;;;;;7.51;75.40;102019.03;4983260;28;20025;-69
2022/04/28 00:56:47;;;;;;;9.65;8.25;;;;;;;7.61;75.18;102024.63;4966223;28;20018;-69
2022/04/28 00:59:12;;;;;;;8.68;7.88;;;;;;;7.44;75.50;102023.78;4965958;28;20024;-69
2022/04/28 01:01:38;;;;;;;9.15;8.32;;;;;;;7.49;75.40;102031.44;4965699;28;20012;-69
2022/04/28 01:04:03;;;;;;;10.48;8.57;;;;;;;7.54;74.88;102027.63;4975861;28;20025;-68
2022/04/28 01:06:29;;;;;;;8.90;8.02;;;;;;;7.31;75.69;102026.22;4964865;28;20028;-69
2022/04/28 01:08:57;;;;;;;9.82;8.32;;;;;;;7.36;75.66;102020.72;4967587;28;20025;-68
2022/04/28 01:11:23;;;;;;;9.27;8.52;;;;;;;7.29;75.69;102029.88;4964989;28;20105;-69
2022/04/28 01:13:48;;;;;;;9.57;8.57;;;;;;;7.26;75.45;102024.78;4968366;28;20010;-69
2022/04/28 01:16:15;;;;;;;9.60;8.70;;;;;;;7.26;75.61;102040.59;4970515;28;20014;-69
2022/04/28 01:18:40;;;;;;;13.27;9.75;;;;;;;7.07;76.23;102031.03;4983433;28;20025;-68
2022/04/28 01:21:06;;;;;;;11.27;8.95;;;;;;;7.11;76.36;102037.84;4983655;28;20223;-69
2022/04/28 01:23:32;;;;;;;10.18;8.82;;;;;;;6.98;76.36;102031.53;4978347;28;20864;-69
2022/04/28 01:25:58;;;;;;;9.65;8.77;;;;;;;6.94;76.84;102040.50;4964255;28;20700;-69
2022/04/28 01:28:23;;;;;;;9.90;8.40;;;;;;;6.86;77.12;102033.88;4967125;28;20018;-69
2022/04/28 01:30:49;;;;;;;9.35;8.13;;;;;;;6.92;77.01;102035.34;4965231;28;20013;-69
2022/04/28 01:33:14;;;;;;;10.80;7.53;;;;;;;7.05;76.57;102039.03;4949485;28;20914;-68
2022/04/28 01:35:39;;;;;;;8.80;7.90;;;;;;;6.81;77.05;102038.56;4964143;28;20710;-68
2022/04/28 01:38:05;;;;;;;8.98;7.93;;;;;;;6.96;76.88;102038.66;4965760;28;20682;-69
2022/04/28 01:40:30;;;;;;;11.18;8.30;;;;;;;7.03;76.34;102040.03;4936034;28;20026;-68
2022/04/28 01:42:55;;;;;;;11.43;7.90;;;;;;;7.02;76.31;102044.47;4964354;28;20033;-69
2022/04/28 01:45:21;;;;;;;8.63;7.82;;;;;;;6.98;76.09;102048.19;4974370;28;20103;-76
2022/04/28 01:47:46;;;;;;;8.95;8.05;;;;;;;6.80;77.07;102047.38;4961451;28;20147;-71
2022/04/28 01:50:12;;;;;;;11.30;8.35;;;;;;;6.89;76.81;102046.03;4964874;28;20014;-71
2022/04/28 01:55:22;;;;;;;9.25;8.30;;;;;;;6.70;77.47;102046.16;4967162;28;20515;-71
2022/04/28 01:57:47;;;;;;;9.02;7.72;;;;;;;6.64;77.55;102043.81;4951568;28;20708;-69
2022/04/28 02:00:13;;;;;;;9.65;8.02;;;;;;;6.56;77.64;102038.97;4977307;28;20030;-70
2022/04/28 02:02:38;;;;;;;9.35;8.27;;;;;;;6.50;77.73;102041.88;4973970;28;20030;-69
2022/04/28 02:05:04;;;;;;;9.30;8.35;;;;;;;6.35;78.02;102046.16;4963581;28;20010;-69
2022/04/28 02:07:29;;;;;;;9.63;8.25;;;;;;;6.27;78.56;102040.44;4960520;28;20780;-69
2022/04/28 02:09:55;;;;;;;9.07;8.23;;;;;;;6.17;79.27;102040.88;4945846;28;20482;-70
2022/04/28 02:12:20;;;;;;;10.40;8.55;;;;;;;6.15;79.01;102048.00;4978545;28;20080;-69
2022/04/28 02:14:46;;;;;;;11.65;8.80;;;;;;;6.13;78.84;102041.97;4961307;28;20094;-68
2022/04/28 02:17:21;;;;;;;10.45;9.02;;;;;;;6.08;79.05;102040.47;4978290;28;20863;-69
2022/04/28 02:19:47;;;;;;;10.82;8.75;;;;;;;6.07;79.01;102042.28;4983063;28;20134;-69
2022/04/28 02:22:12;;;;;;;10.23;8.63;;;;;;;6.05;78.96;102041.50;4962829;28;20015;-71
2022/04/28 02:24:38;;;;;;;11.35;9.05;;;;;;;6.07;78.76;102044.91;4981724;28;20778;-68
2022/04/28 02:27:03;;;;;;;10.35;8.30;;;;;;;6.03;78.54;102047.75;4947922;28;20425;-69
2022/04/28 02:29:29;;;;;;;10.13;8.98;;;;;;;5.94;78.85;102049.03;4965015;28;20006;-68
2022/04/28 02:31:54;;;;;;;10.82;9.77;;;;;;;5.90;79.26;102048.31;4933115;28;20125;-70
2022/04/28 02:34:20;;;;;;;10.13;9.15;;;;;;;5.91;79.30;102050.03;4975187;28;20029;-70
2022/04/28 02:36:45;;;;;;;9.60;8.70;;;;;;;5.90;78.95;102053.56;4986575;28;20989;-70
2022/04/28 02:39:10;;;;;;;11.20;10.02;;;;;;;5.78;79.68;102059.41;4968350;28;20861;-70
2022/04/28 02:41:36;;;;;;;12.10;9.80;;;;;;;5.78;79.20;102047.16;4948049;28;20086;-69
2022/04/28 02:44:02;;;;;;;9.15;8.25;;;;;;;5.72;79.72;102055.28;4981501;28;20859;-69
2022/04/28 02:46:28;;;;;;;10.35;8.77;;;;;;;5.70;79.76;102059.78;4973221;28;20036;-69
2022/04/28 02:48:54;;;;;;;10.68;9.27;;;;;;;5.84;79.61;102064.38;4999319;28;20247;-69
2022/04/28 02:51:19;;;;;;;10.30;8.80;;;;;;;5.74;79.35;102056.09;4978753;28;20983;-68
2022/04/28 02:53:45;;;;;;;9.10;8.25;;;;;;;5.68;79.71;102053.75;4981118;28;20021;-69
2022/04/28 02:56:10;;;;;;;9.93;8.10;;;;;;;5.84;79.49;102059.13;4981994;28;20025;-69
2022/04/28 02:58:36;;;;;;;9.30;8.50;;;;;;;5.85;78.58;102052.94;4964998;28;20041;-69
2022/04/28 03:01:01;;;;;;;9.20;8.30;;;;;;;5.75;79.44;102056.94;4999610;28;20006;-69
2022/04/28 03:03:27;;;;;;;9.65;8.27;;;;;;;5.74;79.42;102063.97;4962243;28;21079;-69
2022/04/28 03:11:20;;;;;;;;;;;;;;;5.58;79.97;102055.09;4973121;28;20074;-69
2022/04/28 03:13:45;;;;;;;9.33;8.43;;;;;;;5.61;79.52;102054.94;4971280;28;19975;-69
2022/04/28 03:16:11;;;;;;;9.63;8.63;;;;;;;5.45;79.95;102052.19;4955134;28;20034;-69
2022/04/28 03:18:37;;;;;;;13.50;9.05;;;;;;;5.53;79.77;102055.31;4947203;28;20018;-68
2022/04/28 03:21:05;;;;;;;12.90;9.20;;;;;;;5.50;80.44;102052.84;4957031;28;20030;-68
2022/04/28 03:23:30;;;;;;;9.65;8.73;;;;;;;5.67;79.17;102062.56;4973705;28;20083;-69
2022/04/28 03:25:56;;;;;;;10.93;9.73;;;;;;;5.61;79.13;102057.56;4964553;28;20018;-69
2022/04/28 03:28:22;;;;;;;10.45;9.35;;;;;;;5.78;78.25;102048.91;4965046;28;20034;-69
2022/04/28 03:30:48;;;;;;;10.32;9.02;;;;;;;5.75;77.73;102059.56;4965207;28;20014;-69
2022/04/28 03:33:14;;;;;;;11.00;9.20;;;;;;;5.69;77.99;102058.06;4967507;28;20041;-68
2022/04/28 03:35:40;;;;;;;10.43;9.43;;;;;;;5.57;78.55;102061.28;4964234;28;20832;-69
2022/04/28 03:38:05;;;;;;;12.55;9.43;;;;;;;5.64;78.17;102062.69;4984337;28;20026;-68
2022/04/28 03:40:31;;;;;;;9.98;8.98;;;;;;;5.60;78.33;102063.78;4987569;28;20061;-68
2022/04/28 03:42:57;;;;;;;10.30;9.30;;;;;;;5.55;78.13;102063.97;4975859;28;20388;-70
2022/04/28 03:45:25;;;;;;;10.60;9.50;;;;;;;5.46;78.97;102062.63;5009480;28;20017;-69
2022/04/28 03:47:50;;;;;;;10.18;9.13;;;;;;;5.41;79.12;102061.97;4989906;28;20413;-68
2022/04/28 03:50:16;;;;;;;10.07;8.90;;;;;;;5.42;79.07;102058.44;4965269;28;20010;-69
2022/04/28 03:52:42;;;;;;;11.60;9.05;;;;;;;5.66;78.15;102066.09;4960594;28;20564;-68
2022/04/28 03:55:09;;;;;;;10.18;9.18;;;;;;;5.77;77.76;102068.22;4979666;28;20013;-69
2022/04/28 03:57:34;;;;;;;13.40;8.95;;;;;;;5.95;76.70;102067.34;4981417;28;20921;-68
2022/04/28 04:00:00;;;;;;;12.07;8.95;;;;;;;5.99;76.22;102057.56;4965190;28;20041;-69
2022/04/28 04:02:25;;;;;;;9.48;8.57;;;;;;;5.84;76.41;102067.84;4959780;28;20142;-70
2022/04/28 04:04:51;;;;;;;10.05;9.05;;;;;;;5.79;76.75;102076.88;4958860;28;20088;-69
2022/04/28 04:07:17;;;;;;;12.70;9.05;;;;;;;5.58;77.95;102069.06;4950459;28;20006;-69
2022/04/28 04:09:42;;;;;;;11.48;9.23;;;;;;;5.57;78.19;102067.41;4989500;28;20014;-71
2022/04/28 04:12:08;;;;;;;11.60;10.25;;;;;;;5.56;78.08;102073.56;4934030;28;20333;-69
2022/04/28 04:14:34;;;;;;;14.50;9.55;;;;;;;5.45;78.44;102068.78;4946293;28;20017;-68
2022/04/28 04:16:59;;;;;;;11.25;9.63;;;;;;;5.62;78.38;102075.03;4974780;28;20018;-69
2022/04/28 04:19:25;;;;;;;10.95;9.85;;;;;;;5.59;77.85;102075.19;4973880;28;20137;-68
2022/04/28 04:21:50;;;;;;;10.30;9.27;;;;;;;5.59;78.07;102070.78;5007657;28;21219;-69
2022/04/28 04:24:16;;;;;;;10.95;9.85;;;;;;;5.53;78.44;102070.22;4973870;28;20187;-70
2022/04/28 04:26:41;;;;;;;11.05;9.95;;;;;;;5.67;77.72;102073.91;4982171;28;20090;-69
2022/04/28 04:29:07;;;;;;;10.50;9.57;;;;;;;5.64;78.16;102089.81;4988450;28;20534;-68
2022/04/28 04:34:16;;;;;;;12.20;10.38;;;;;;;5.55;79.13;102084.13;4985684;28;20098;-69
2022/04/28 04:36:41;;;;;;;14.02;10.10;;;;;;;5.40;79.59;102090.94;4975164;28;20041;-68
2022/04/28 04:39:07;;;;;;;11.45;10.18;;;;;;;5.46;79.31;102096.75;5013159;28;20365;-68
2022/04/28 04:41:32;;;;;;;12.68;10.48;;;;;;;5.38;79.62;102101.50;4958724;28;20018;-72
2022/04/28 04:43:58;;;;;;;11.88;10.63;;;;;;;5.39;80.45;102100.59;4984312;28;20554;-70
2022/04/28 04:46:23;;;;;;;15.02;11.25;;;;;;;5.41;80.24;102100.53;4956432;28;20010;-69
2022/04/28 04:48:49;;;;;;;11.80;10.70;;;;;;;5.45;80.75;102100.31;4981176;28;20053;-69
2022/04/28 04:51:14;;;;;;;12.75;10.75;;;;;;;5.42;80.39;102097.81;4980381;28;20018;-69
2022/04/28 04:53:39;;;;;;;11.68;10.48;;;;;;;5.41;80.54;102108.38;4977267;28;20010;-69
2022/04/28 04:56:05;;;;;;;12.50;11.20;;;;;;;5.34;80.85;102105.19;4940778;28;21157;-69
2022/04/28 04:58:30;;;;;;;11.95;10.75;;;;;;;5.35;80.89;102113.94;4960255;28;20025;-69
2022/04/28 05:00:56;;;;;;;11.90;10.55;;;;;;;5.44;80.83;102117.00;4960524;28;20019;-70
2022/04/28 05:03:21;;;;;;;12.98;11.32;;;;;;;5.43;81.37;102111.78;4971631;28;20095;-70
2022/04/28 05:05:47;;;;;;;13.05;11.60;;;;;;;5.32;81.56;102113.13;4992933;28;20010;-69
2022/04/28 05:08:14;;;;;;;12.68;11.13;;;;;;;5.32;81.56;102117.53;4999307;28;20489;-69
2022/04/28 05:10:39;;;;;;;13.40;11.02;;;;;;;5.36;81.87;102113.84;4963201;28;20009;-69
2022/04/28 05:13:05;;;;;;;13.15;11.85;;;;;;;5.40;81.63;102120.69;4966419;28;20010;-69
2022/04/28 05:15:30;;;;;;;15.27;12.45;;;;;;;5.52;81.03;102118.41;4958915;28;20009;-69
2022/04/28 05:17:55;;;;;;;13.32;12.02;;;;;;;5.61;80.71;102123.22;5002161;28;20437;-69
2022/04/28 05:20:21;;;;;;;13.40;11.90;;;;;;;5.67;80.92;102122.97;4995112;28;20544;-69
2022/04/28 05:22:47;;;;;;;14.60;12.15;;;;;;;5.61;81.19;102123.22;4962541;28;20013;-70
2022/04/28 05:25:12;;;;;;;14.32;12.82;;;;;;;5.75;81.17;102122.59;4964620;28;20121;-69
2022/04/28 05:27:38;;;;;;;13.80;11.80;;;;;;;6.05;80.03;102130.84;4999855;28;20022;-69
2022/04/28 05:30:04;;;;;;;16.77;12.80;;;;;;;6.04;80.38;102126.50;4981177;28;20044;-68
2022/04/28 05:32:29;;;;;;;15.77;12.88;;;;;;;6.04;80.52;102129.16;4980478;28;20078;-69
2022/04/28 05:34:54;;;;;;;16.33;12.23;;;;;;;6.36;79.80;102132.00;4968775;28;20839;-69
2022/04/28 05:37:20;;;;;;;14.85;13.27;;;;;;;6.47;79.84;102131.47;4980664;28;20033;-71
2022/04/28 05:39:45;;;;;;;16.20;13.07;;;;;;;6.47;80.36;102136.72;4983287;28;20030;-68
2022/04/28 05:42:11;;;;;;;16.67;13.18;;;;;;;6.54;80.83;102138.13;4968019;28;20041;-71
2022/04/28 05:47:20;;;;;;;14.38;12.38;;;;;;;6.90;79.91;102139.00;5001194;28;20031;-70
2022/04/28 05:49:46;;;;;;;13.30;11.90;;;;;;;7.08;79.58;102147.69;4968024;28;20022;-70
2022/04/28 05:52:11;;;;;;;12.95;11.75;;;;;;;7.33;78.91;102145.50;4965913;28;20182;-70
2022/04/28 05:54:39;;;;;;;13.40;12.07;;;;;;;7.45;78.37;102140.53;4950413;28;20026;-70
2022/04/28 05:57:05;;;;;;;14.25;12.23;;;;;;;7.53;78.12;102146.22;4969137;28;20014;-70
2022/04/28 05:59:30;;;;;;;13.85;12.55;;;;;;;7.63;78.11;102147.44;4979134;28;20518;-70
2022/04/28 06:01:56;;;;;;;13.38;11.80;;;;;;;7.65;77.36;102144.72;4942906;28;20011;-70
2022/04/28 06:04:22;;;;;;;13.35;11.73;;;;;;;7.83;76.97;102148.13;4952699;28;20560;-70
2022/04/28 06:06:47;;;;;;;13.98;12.57;;;;;;;7.91;76.70;102152.03;4984160;28;20018;-70
2022/04/28 06:09:12;;;;;;;14.20;12.50;;;;;;;8.07;76.06;102154.66;4970304;28;20228;-70
2022/04/28 06:11:38;;;;;;;14.95;12.05;;;;;;;8.24;75.61;102156.34;4970396;28;20036;-70
2022/04/28 06:14:03;;;;;;;14.93;12.30;;;;;;;8.31;75.52;102153.38;4967548;28;20852;-71
2022/04/28 06:16:29;;;;;;;14.45;13.00;;;;;;;8.37;75.82;102167.06;4947152;28;20010;-69
2022/04/28 06:18:54;;;;;;;14.57;12.25;;;;;;;8.46;74.27;102167.50;4966087;28;20080;-69
2022/04/28 06:21:19;;;;;;;16.25;13.10;;;;;;;8.52;72.68;102169.81;4942407;28;20029;-69
2022/04/28 06:23:45;;;;;;;14.27;12.95;;;;;;;8.57;72.98;102167.75;4983524;28;20251;-69
2022/04/28 06:26:11;;;;;;;15.27;13.68;;;;;;;8.66;73.23;102161.06;4978993;28;20756;-70
2022/04/28 06:28:36;;;;;;;18.92;13.15;;;;;;;8.63;72.44;102159.50;4963962;28;20013;-70
2022/04/28 06:31:02;;;;;;;18.70;13.85;;;;;;;8.69;71.37;102169.69;4983600;28;20022;-70
2022/04/28 06:33:27;;;;;;;15.32;13.73;;;;;;;8.88;71.45;102172.09;4960240;28;20022;-70
2022/04/28 06:35:54;;;;;;;15.73;13.80;;;;;;;8.90;71.03;102167.56;4976190;28;20010;-69
2022/04/28 06:38:19;;;;;;;15.68;13.98;;;;;;;8.96;70.92;102176.06;5005901;28;20992;-69
2022/04/28 06:40:45;;;;;;;15.13;13.48;;;;;;;9.01;70.86;102176.63;4988317;28;20029;-69
2022/04/28 06:43:10;;;;;;;17.60;13.85;;;;;;;9.19;70.66;102180.81;4991837;28;20032;-69
2022/04/28 06:45:37;;;;;;;17.60;14.40;;;;;;;9.20;70.18;102182.50;4986915;28;20021;-69
2022/04/28 06:48:03;;;;;;;17.10;14.95;;;;;;;9.30;69.40;102182.81;4995293;28;20013;-70
2022/04/28 06:50:28;;;;;;;17.83;14.10;;;;;;;9.41;69.10;102184.81;5011538;28;20001;-69
2022/04/28 06:52:54;;;;;;;17.10;15.40;;;;;;;9.43;68.15;102180.28;5018212;28;20009;-69
2022/04/28 06:55:19;;;;;;;17.27;14.82;;;;;;;9.61;67.94;102176.50;5029190;28;20021;-69
2022/04/28 06:57:44;;;;;;;19.55;15.20;;;;;;;9.68;67.40;102186.69;5004807;28;20876;-69
2022/04/28 07:00:10;;;;;;;17.40;15.30;;;;;;;9.71;67.62;102184.69;4997952;28;20295;-69
2022/04/28 07:02:36;;;;;;;18.55;15.32;;;;;;;9.77;66.63;102196.69;4979611;28;20807;-70
2022/04/28 07:05:01;;;;;;;20.63;14.73;;;;;;;9.85;66.07;102197.06;4962092;28;20002;-70
2022/04/28 07:07:26;;;;;;;18.90;15.70;;;;;;;9.84;65.62;102192.72;4980205;28;20018;-70
2022/04/28 07:09:52;;;;;;;20.55;15.40;;;;;;;9.98;65.79;102194.50;4982139;28;20106;-69
2022/04/28 07:12:17;;;;;;;18.75;15.23;;;;;;;10.16;65.43;102197.75;4966159;28;20836;-69
2022/04/28 07:14:43;;;;;;;18.90;15.23;;;;;;;10.19;64.24;102202.00;4959410;28;20466;-70
2022/04/28 07:17:09;;;;;;;17.52;15.73;;;;;;;10.30;64.65;102205.66;4964762;28;20010;-71
2022/04/28 07:19:34;;;;;;;22.50;15.93;;;;;;;10.40;64.53;102207.75;4969236;28;20121;-69
2022/04/28 07:22:02;;;;;;;18.10;16.10;;;;;;;10.46;63.58;102215.28;4987022;28;20022;-70
2022/04/28 07:24:29;;;;;;;18.38;15.63;;;;;;;10.59;63.97;102204.72;4968316;28;20179;-71
2022/04/28 07:26:54;;;;;;;19.63;15.88;;;;;;;10.75;63.14;102210.72;4967032;28;20168;-70
2022/04/28 07:29:20;;;;;;;23.70;16.88;;;;;;;10.80;63.31;102211.28;4966138;28;20121;-69
2022/04/28 07:31:45;;;;;;;21.10;17.33;;;;;;;10.89;62.40;102207.16;4983622;28;20405;-70
2022/04/28 07:34:11;;;;;;;19.40;17.33;;;;;;;10.92;63.49;102209.59;4975594;28;20014;-69
2022/04/28 07:36:36;;;;;;;23.10;16.98;;;;;;;11.02;62.93;102198.41;4970478;28;20021;-70
2022/04/28 07:39:01;;;;;;;18.98;16.33;;;;;;;11.13;62.76;102212.59;4966698;28;20021;-70
2022/04/28 07:41:28;;;;;;;24.17;17.02;;;;;;;11.29;62.19;102215.03;5003240;28;20859;-69
2022/04/28 07:43:54;;;;;;;19.48;16.02;;;;;;;11.46;62.70;102213.03;4963482;28;20201;-70
2022/04/28 07:46:19;;;;;;;18.98;16.58;;;;;;;11.57;62.34;102217.59;4989071;28;20717;-70
2022/04/28 07:48:45;;;;;;;17.95;16.02;;;;;;;11.69;62.60;102216.75;4972690;28;20009;-70
2022/04/28 07:51:10;;;;;;;24.05;17.25;;;;;;;11.91;61.27;102221.38;4962133;28;20034;-70
2022/04/28 07:53:35;;;;;;;21.35;16.80;;;;;;;12.05;61.40;102227.53;4979768;28;20028;-69
2022/04/28 07:56:10;;;;;;;19.20;16.45;;;;;;;12.09;60.91;102229.84;4981579;28;20026;-69
2022/04/28 07:58:35;;;;;;;23.13;16.42;;;;;;;12.23;59.71;102231.53;4997171;28;20014;-69
2022/04/28 08:01:01;;;;;;;18.05;16.25;;;;;;;12.20;59.17;102229.09;4991380;28;20029;-70
2022/04/28 08:03:26;;;;;;;17.95;16.08;;;;;;;12.26;59.06;102230.47;5012202;28;20018;-69
2022/04/28 08:05:53;;;;;;;19.42;15.85;;;;;;;12.39;58.19;102230.41;4995188;28;20001;-69
2022/04/28 08:08:19;;;;;;;18.63;16.55;;;;;;;12.46;58.37;102236.97;4979517;28;20265;-69
2022/04/28 08:10:44;;;;;;;19.52;15.63;;;;;;;12.50;57.97;102227.81;4981265;28;20014;-70
2022/04/28 08:13:09;;;;;;;18.13;16.23;;;;;;;12.66;58.64;102231.03;4997599;28;20033;-70
2022/04/28 08:15:35;;;;;;;18.70;15.77;;;;;;;12.85;57.52;102230.50;4978829;28;20026;-69
2022/04/28 08:18:00;;;;;;;18.33;14.77;;;;;;;13.01;57.19;102232.84;4963115;28;20022;-69
2022/04/28 08:20:26;;;;;;;18.98;15.30;;;;;;;13.16;56.20;102230.00;4944969;28;20044;-69
2022/04/28 08:22:51;;;;;;;14.88;13.48;;;;;;;13.25;56.48;102226.63;4945675;28;20073;-70
2022/04/28 08:25:17;;;;;;;16.30;14.60;;;;;;;13.33;55.69;102223.38;4979154;28;20037;-69
2022/04/28 08:27:42;;;;;;;17.02;15.20;;;;;;;13.51;55.94;102223.81;4996494;28;20057;-69
2022/04/28 08:30:08;;;;;;;18.30;15.02;;;;;;;13.62;56.69;102234.47;4978005;28;20375;-69
2022/04/28 08:32:34;;;;;;;17.75;14.63;;;;;;;13.63;55.88;102227.31;4957000;28;20026;-70
2022/04/28 08:34:59;;;;;;;15.57;13.93;;;;;;;13.83;56.09;102239.03;4979996;28;20006;-70
2022/04/28 08:37:24;;;;;;;15.43;13.82;;;;;;;13.98;55.09;102232.50;4977467;28;20359;-70
2022/04/28 08:39:50;;;;;;;21.13;14.73;;;;;;;14.14;55.36;102239.25;4962526;28;20906;-69
2022/04/28 08:42:15;;;;;;;16.17;14.48;;;;;;;14.43;55.21;102243.06;5000116;28;20131;-70
2022/04/28 08:44:41;;;;;;;16.35;14.55;;;;;;;14.56;55.68;102242.06;4945960;28;20235;-70
2022/04/28 08:47:06;;;;;;;16.48;13.73;;;;;;;14.83;54.90;102236.28;4936678;28;20010;-70
2022/04/28 08:49:32;;;;;;;20.10;14.70;;;;;;;14.87;54.25;102239.56;4925434;28;20030;-70
2022/04/28 08:51:58;;;;;;;16.15;14.48;;;;;;;14.76;52.36;102238.66;4944643;28;20077;-69
2022/04/28 08:54:25;;;;;;;21.38;14.63;;;;;;;15.02;53.31;102248.94;4961800;28;20049;-70
2022/04/28 08:56:52;;;;;;;15.82;13.40;;;;;;;15.03;50.47;102247.09;4928868;28;20050;-70
2022/04/28 08:59:18;;;;;;;15.88;13.55;;;;;;;15.21;50.49;102248.22;4928910;28;20026;-70
2022/04/28 09:01:43;;;;;;;15.40;13.18;;;;;;;15.44;50.09;102246.25;4977325;28;20383;-70
2022/04/28 09:04:11;;;;;;;16.75;12.93;;;;;;;15.77;48.27;102244.31;4935767;28;20495;-71
2022/04/28 09:06:38;;;;;;;13.95;12.38;;;;;;;15.88;48.60;102240.72;4946056;28;20352;-70
2022/04/28 09:09:06;;;;;;;15.02;12.15;;;;;;;16.25;49.58;102239.28;4950904;28;20086;-70
2022/04/28 09:11:35;;;;;;;16.27;13.30;;;;;;;16.63;47.75;102245.66;4942363;28;20025;-70
2022/04/28 09:16:53;;;;;;;12.88;11.57;;;;;;;17.07;47.72;102240.75;4969208;28;20512;-70
2022/04/28 09:19:24;;;;;;;14.10;11.13;;;;;;;17.31;47.45;102239.44;4931189;28;20026;-70
2022/04/28 09:21:57;;;;;;;16.00;11.68;;;;;;;17.39;44.50;102234.22;4979913;28;20428;-69
2022/04/28 09:24:23;;;;;;;15.38;11.90;;;;;;;17.73;43.84;102238.19;4929967;28;20017;-70
2022/04/28 09:26:50;;;;;;;13.35;10.60;;;;;;;18.10;43.05;102235.47;4927446;28;20195;-71
2022/04/28 09:29:17;;;;;;;12.60;11.30;;;;;;;18.07;39.93;102234.97;4963113;28;20123;-70
2022/04/28 09:31:44;;;;;;;10.68;9.70;;;;;;;18.39;41.33;102233.59;4927931;28;20018;-70
2022/04/28 09:34:13;;;;;;;11.57;10.43;;;;;;;18.90;40.96;102233.97;4941531;28;20011;-70
2022/04/28 09:36:40;;;;;;;13.20;9.48;;;;;;;19.05;37.82;102232.41;4937106;28;20068;-70
2022/04/28 09:39:06;;;;;;;11.05;9.85;;;;;;;18.62;37.65;102226.81;4964503;28;20048;-70
2022/04/28 09:44:20;;;;;;;8.80;8.00;;;;;;;19.52;37.82;102221.28;4959762;28;20021;-70
2022/04/28 09:46:47;;;;;;;9.68;8.77;;;;;;;20.06;37.38;102230.94;4974903;28;20006;-71
2022/04/28 09:49:16;;;;;;;8.65;7.93;;;;;;;20.31;35.55;102225.63;4966002;28;20010;-70
2022/04/28 09:51:42;;;;;;;9.38;8.25;;;;;;;20.33;33.54;102229.81;4927221;28;20013;-70
2022/04/28 09:54:09;;;;;;;8.73;7.93;;;;;;;20.24;33.86;102223.59;4948022;28;20776;-70
2022/04/28 09:56:34;;;;;;;8.43;7.47;;;;;;;20.05;33.07;102219.34;4942461;28;20011;-70
2022/04/28 09:59:00;;;;;;;9.63;8.15;;;;;;;20.19;33.90;102223.25;4948071;28;20029;-70
2022/04/28 10:01:27;;;;;;;9.60;8.35;;;;;;;20.47;32.56;102224.81;4950128;28;20026;-70
2022/04/28 10:03:53;;;;;;;8.82;8.13;;;;;;;20.30;31.33;102223.94;4949336;28;20782;-71
2022/04/28 10:06:18;;;;;;;8.73;7.93;;;;;;;20.92;31.70;102224.34;4965485;28;20014;-70
2022/04/28 10:08:43;;;;;;;8.77;7.93;;;;;;;21.38;31.06;102231.84;4945565;28;20018;-71
2022/04/28 10:11:10;;;;;;;8.15;7.45;;;;;;;21.67;31.31;102224.22;4947848;28;20010;-70
2022/04/28 10:13:35;;;;;;;8.60;7.80;;;;;;;21.84;32.24;102233.91;4967988;28;20215;-70
2022/04/28 10:16:11;;;;;;;8.50;7.80;;;;;;;21.81;30.11;102217.25;4964957;28;20025;-71
2022/04/28 10:18:41;;;;;;;7.72;6.97;;;;;;;22.16;30.64;102229.38;4947753;28;20133;-70
2022/04/28 10:21:08;;;;;;;8.15;7.32;;;;;;;22.60;29.94;102228.78;4922502;28;20089;-71
2022/04/28 10:35:08;;;;;;;9.68;8.77;;;;;;;23.85;29.48;102210.28;4940952;28;20033;-71
2022/04/28 10:37:45;;;;;;;8.63;7.97;;;;;;;24.32;28.97;102218.94;4958985;28;20078;-71
2022/04/28 10:40:16;;;;;;;9.35;7.93;;;;;;;24.48;27.91;102220.53;4998684;28;20102;-71
2022/04/28 10:42:42;;;;;;;8.02;7.32;;;;;;;24.24;29.08;102211.78;4965277;28;20051;-71
2022/04/28 10:45:23;;;;;;;7.85;7.15;;;;;;;24.93;29.03;102217.63;4988939;28;20154;-71
2022/04/28 10:47:48;;;;;;;8.57;7.88;;;;;;;24.93;27.63;102213.06;4962583;28;20033;-70
2022/04/28 10:50:24;;;;;;;8.60;7.75;;;;;;;25.09;29.10;102217.34;4961907;28;20289;-71
2022/04/28 10:52:56;;;;;;;13.18;9.68;;;;;;;25.06;27.13;102211.47;4961873;28;20022;-71
2022/04/28 10:55:23;;;;;;;8.68;7.80;;;;;;;25.29;27.79;102212.03;4961938;28;20021;-70
2022/04/28 10:57:49;;;;;;;11.05;9.85;;;;;;;25.43;26.45;102214.88;4972457;28;20025;-71
2022/04/28 11:00:34;;;;;;;11.88;8.10;;;;;;;24.80;27.59;102221.06;4953331;28;20045;-71
2022/04/28 11:02:59;;;;;;;9.25;7.95;;;;;;;24.55;26.27;102216.06;4960620;28;20064;-71
2022/04/28 11:05:32;;;;;;;9.02;8.10;;;;;;;24.90;28.14;102208.03;4953180;28;20007;-71
2022/04/28 11:08:00;;;;;;;7.97;7.27;;;;;;;25.36;28.49;102212.94;4979778;28;20407;-71
2022/04/28 11:10:27;;;;;;;7.97;7.30;;;;;;;25.95;27.19;102208.00;4947158;28;20002;-72
2022/04/28 11:12:52;;;;;;;8.35;7.57;;;;;;;25.37;28.20;102206.50;4979200;28;20117;-70
2022/04/28 11:15:18;;;;;;;7.72;7.10;;;;;;;25.72;28.01;102213.75;4977941;28;20490;-71
2022/04/28 11:17:43;;;;;;;8.00;7.30;;;;;;;26.13;26.12;102212.88;4947088;28;20113;-71
2022/04/28 11:20:12;;;;;;;8.23;7.43;;;;;;;26.35;24.86;102220.84;4943981;28;20145;-71
2022/04/28 11:22:46;;;;;;;9.52;7.93;;;;;;;26.26;23.92;102214.78;4958204;28;20294;-71
2022/04/28 11:25:12;;;;;;;10.90;8.13;;;;;;;25.52;24.89;102206.38;4972336;28;20030;-71
2022/04/28 11:27:38;;;;;;;7.78;7.07;;;;;;;25.87;24.17;102197.31;4960112;28;20014;-71
2022/04/28 11:30:05;;;;;;;7.18;6.13;;;;;;;26.46;25.16;102198.53;4960215;28;20186;-71
2022/04/28 11:32:30;;;;;;;7.22;6.50;;;;;;;26.62;24.67;102204.59;4961833;28;20086;-71
2022/04/28 11:34:56;;;;;;;7.95;7.18;;;;;;;25.74;23.98;102197.28;4974605;28;20018;-71
2022/04/28 11:37:25;;;;;;;7.47;6.55;;;;;;;26.17;24.43;102203.28;4975003;28;20137;-72
2022/04/28 11:39:56;;;;;;;7.47;6.80;;;;;;;26.69;23.18;102205.44;4977773;28;20014;-71
2022/04/28 11:42:24;;;;;;;7.47;6.78;;;;;;;26.98;23.90;102203.34;4978336;28;20013;-71
2022/04/28 11:44:56;;;;;;;7.35;6.03;;;;;;;26.45;25.35;102209.59;4985613;28;20024;-71
2022/04/28 11:47:22;;;;;;;7.47;6.88;;;;;;;26.79;24.01;102214.00;4961838;28;20014;-71
2022/04/28 11:49:50;;;;;;;7.75;7.05;;;;;;;26.86;23.35;102212.16;4964013;28;20113;-71